Time;durP1;ratioP1;P1;durP2;ratioP2;P2;SDS_P1;SDS_P2;PMS_P1;PMS_P2;Temp;Humidity;BMP_temperature;BMP_pressure;BME280_temperature;BME280_humidity;BME280_pressure;Samples;Min_cycle;Max_cycle;Signal;HPM_P1;HPM_P2
2021/11/27 00:01:25;;;;;;;7.70;4.13;;;3.90;83.00;;;;;;4933298;29;20138;-87
2021/11/27 00:03:54;;;;;;;8.73;4.18;;;3.90;83.00;;;;;;4933745;29;20047;-87
2021/11/27 00:06:23;;;;;;;9.65;4.15;;;3.80;82.90;;;;;;4930459;29;20052;-87
2021/11/27 00:08:50;;;;;;;11.25;4.13;;;3.80;82.90;;;;;;4932153;29;20146;-87
2021/11/27 00:11:18;;;;;;;8.48;3.80;;;3.80;82.80;;;;;;4931681;29;20047;-87
2021/11/27 00:13:45;;;;;;;11.88;3.97;;;3.70;82.80;;;;;;4931684;29;20145;-87
2021/11/27 00:16:12;;;;;;;12.48;4.90;;;3.70;82.80;;;;;;4933370;29;20048;-87
2021/11/27 00:18:39;;;;;;;9.80;4.25;;;3.70;82.80;;;;;;4931382;29;20054;-87
2021/11/27 00:21:10;;;;;;;9.77;4.03;;;3.70;82.70;;;;;;4931299;29;20505;-87
2021/11/27 00:23:39;;;;;;;8.82;4.47;;;3.60;82.70;;;;;;4931803;29;20135;-88
2021/11/27 00:26:10;;;;;;;10.13;4.07;;;3.60;82.70;;;;;;4930501;29;20047;-88
2021/11/27 00:28:37;;;;;;;11.35;4.47;;;3.60;82.70;;;;;;4916731;29;20048;-90
2021/11/27 00:31:10;;;;;;;7.57;3.90;;;3.60;82.70;;;;;;4934211;29;20083;-90
2021/11/27 00:33:37;;;;;;;8.93;4.65;;;3.50;82.60;;;;;;4932339;29;20138;-89
2021/11/27 00:36:04;;;;;;;9.30;3.75;;;3.50;82.60;;;;;;4926574;29;20051;-90
2021/11/27 00:38:31;;;;;;;12.57;4.50;;;3.50;82.60;;;;;;4932091;29;20110;-90
2021/11/27 00:40:59;;;;;;;10.55;4.07;;;3.50;82.60;;;;;;4932402;29;20139;-89
2021/11/27 00:43:27;;;;;;;11.88;4.22;;;3.50;82.60;;;;;;4931455;29;20063;-88
2021/11/27 00:45:54;;;;;;;9.18;4.47;;;3.50;82.60;;;;;;4933982;29;20051;-88
2021/11/27 00:48:21;;;;;;;9.70;4.03;;;3.50;82.60;;;;;;4931662;29;20465;-87
2021/11/27 00:50:54;;;;;;;10.90;3.97;;;3.40;82.50;;;;;;4926410;29;20052;-89
2021/11/27 00:53:44;;;;;;;13.07;4.20;;;3.40;82.50;;;;;;4930381;29;20047;-87
2021/11/27 00:56:17;;;;;;;7.78;3.47;;;3.40;82.50;;;;;;4930411;29;20051;-88
2021/11/27 00:58:47;;;;;;;9.68;4.18;;;3.40;82.50;;;;;;4930359;29;20047;-88
2021/11/27 01:01:19;;;;;;;10.13;3.85;;;3.40;82.40;;;;;;4932707;29;20523;-87
2021/11/27 01:03:47;;;;;;;9.27;3.50;;;3.40;82.40;;;;;;4932265;29;20055;-87
2021/11/27 01:06:17;;;;;;;8.82;3.85;;;3.30;82.30;;;;;;4931545;29;20047;-88
2021/11/27 01:08:44;;;;;;;10.13;3.65;;;3.30;82.30;;;;;;4929990;29;20054;-87
2021/11/27 01:11:13;;;;;;;10.45;3.72;;;3.30;82.30;;;;;;4931073;29;20051;-88
2021/11/27 01:13:42;;;;;;;10.82;4.00;;;3.30;82.20;;;;;;4930919;29;20044;-88
2021/11/27 01:16:09;;;;;;;10.90;3.35;;;3.30;82.20;;;;;;4932964;29;20457;-87
2021/11/27 01:18:37;;;;;;;9.75;3.60;;;3.20;82.20;;;;;;4930584;29;20447;-88
2021/11/27 01:21:07;;;;;;;11.45;3.38;;;3.20;82.10;;;;;;4929742;29;20056;-88
2021/11/27 01:23:36;;;;;;;10.23;3.47;;;3.20;82.10;;;;;;4931320;29;20047;-88
2021/11/27 01:26:04;;;;;;;8.85;3.60;;;3.20;82.10;;;;;;4929115;29;20051;-88
2021/11/27 01:28:31;;;;;;;7.18;3.10;;;3.20;82.00;;;;;;4931660;29;20051;-87
2021/11/27 01:30:59;;;;;;;9.40;2.92;;;3.10;82.00;;;;;;4934103;29;20055;-86
2021/11/27 01:33:28;;;;;;;10.30;3.28;;;3.10;82.00;;;;;;4934528;29;20534;-88
2021/11/27 01:35:56;;;;;;;13.32;3.67;;;3.10;82.00;;;;;;4934475;29;20596;-88
2021/11/27 01:38:24;;;;;;;9.27;3.45;;;3.10;81.90;;;;;;4933272;29;20047;-87
2021/11/27 01:40:51;;;;;;;9.02;3.88;;;3.10;81.90;;;;;;4934261;29;20522;-88
2021/11/27 01:43:19;;;;;;;10.00;3.85;;;3.10;81.90;;;;;;4935116;29;20126;-88
2021/11/27 01:45:46;;;;;;;10.82;3.47;;;3.00;81.80;;;;;;4936375;29;20134;-87
2021/11/27 01:48:16;;;;;;;10.98;3.90;;;3.00;81.80;;;;;;4933147;29;20067;-87
2021/11/27 01:50:56;;;;;;;7.38;2.75;;;3.00;81.80;;;;;;4932324;29;20059;-87
2021/11/27 01:53:27;;;;;;;9.32;3.22;;;3.00;81.70;;;;;;4932806;29;20047;-86
2021/11/27 01:55:57;;;;;;;9.43;3.30;;;2.90;81.70;;;;;;4934015;29;20051;-86
2021/11/27 01:58:24;;;;;;;10.60;3.00;;;2.90;81.70;;;;;;4933055;29;20424;-87
2021/11/27 02:00:55;;;;;;;11.50;3.75;;;2.90;81.60;;;;;;4936003;29;20082;-86
2021/11/27 02:03:22;;;;;;;12.73;3.78;;;2.90;81.60;;;;;;4932375;29;20051;-86
2021/11/27 02:05:49;;;;;;;8.50;2.97;;;2.90;81.60;;;;;;4933830;29;20048;-86
2021/11/27 02:08:17;;;;;;;9.52;3.15;;;2.90;81.60;;;;;;4932547;29;20583;-85
2021/11/27 02:10:45;;;;;;;14.63;3.35;;;2.90;81.60;;;;;;4933498;29;20632;-86
2021/11/27 02:13:12;;;;;;;10.65;3.65;;;2.90;81.60;;;;;;4935100;29;20079;-86
2021/11/27 02:15:39;;;;;;;14.07;3.33;;;2.80;81.50;;;;;;4932796;29;20713;-86
2021/11/27 02:18:07;;;;;;;10.60;3.53;;;2.80;81.50;;;;;;4931066;29;20682;-86
2021/11/27 02:20:40;;;;;;;11.52;3.42;;;2.80;81.50;;;;;;4933477;29;20051;-86
2021/11/27 02:23:08;;;;;;;12.30;3.58;;;2.80;81.50;;;;;;4933547;29;20410;-85
2021/11/27 02:25:35;;;;;;;16.77;4.32;;;2.70;81.50;;;;;;4918275;29;20044;-85
2021/11/27 02:28:04;;;;;;;17.83;5.22;;;2.80;81.50;;;;;;4931444;29;20135;-85
2021/11/27 02:30:31;;;;;;;16.23;4.07;;;2.80;81.40;;;;;;4931943;29;20505;-84
2021/11/27 02:32:58;;;;;;;14.55;3.85;;;2.70;81.40;;;;;;4933372;29;20087;-85
2021/11/27 02:35:25;;;;;;;14.88;4.13;;;2.70;81.30;;;;;;4932227;29;20047;-86
2021/11/27 02:37:52;;;;;;;13.15;3.75;;;2.70;81.30;;;;;;4933121;29;20484;-85
2021/11/27 02:40:19;;;;;;;10.23;3.63;;;2.70;81.30;;;;;;4934552;29;20059;-85
2021/11/27 02:42:46;;;;;;;13.02;3.55;;;2.60;81.30;;;;;;4932118;29;20054;-85
2021/11/27 02:45:13;;;;;;;14.18;3.67;;;2.60;81.30;;;;;;4933315;29;20059;-85
2021/11/27 02:47:41;;;;;;;11.77;3.10;;;2.60;81.30;;;;;;4933210;29;20481;-85
2021/11/27 02:50:09;;;;;;;16.50;3.50;;;2.60;81.30;;;;;;4933249;29;20184;-85
2021/11/27 02:52:36;;;;;;;11.75;3.05;;;2.60;81.40;;;;;;4917870;29;20075;-84
2021/11/27 02:55:04;;;;;;;12.50;3.28;;;2.60;81.30;;;;;;4935405;29;20055;-86
2021/11/27 02:57:32;;;;;;;14.13;2.90;;;2.60;81.40;;;;;;4931785;29;20056;-86
2021/11/27 03:00:01;;;;;;;12.68;3.30;;;2.60;81.40;;;;;;4933002;29;20524;-86
2021/11/27 03:02:28;;;;;;;11.23;2.85;;;2.50;81.40;;;;;;4932862;29;20055;-86
2021/11/27 03:04:55;;;;;;;15.13;3.17;;;2.60;81.50;;;;;;4932922;29;20043;-86
2021/11/27 03:07:23;;;;;;;16.15;3.20;;;2.60;81.50;;;;;;4932655;29;20055;-86
2021/11/27 03:09:51;;;;;;;14.45;3.30;;;2.60;81.50;;;;;;4934773;29;20055;-85
2021/11/27 03:12:18;;;;;;;12.57;3.55;;;2.60;81.50;;;;;;4932505;29;20124;-86
2021/11/27 03:14:46;;;;;;;13.10;3.40;;;2.60;81.60;;;;;;4932597;29;20643;-87
2021/11/27 03:17:14;;;;;;;12.38;3.28;;;2.60;81.60;;;;;;4931648;29;20051;-87
2021/11/27 03:19:43;;;;;;;10.57;3.13;;;2.60;81.70;;;;;;4931404;29;20051;-86
2021/11/27 03:22:12;;;;;;;11.88;2.75;;;2.60;81.70;;;;;;4933769;29;20053;-86
2021/11/27 03:24:39;;;;;;;13.18;2.67;;;2.60;81.80;;;;;;4931389;29;20051;-87
2021/11/27 03:27:08;;;;;;;14.50;3.10;;;2.50;81.80;;;;;;4931254;29;20086;-88
2021/11/27 03:29:35;;;;;;;13.50;2.83;;;2.60;81.90;;;;;;4932413;29;20047;-88
2021/11/27 03:32:06;;;;;;;8.35;2.35;;;2.50;81.90;;;;;;4932625;29;20044;-88
2021/11/27 03:34:33;;;;;;;13.90;3.22;;;2.50;82.00;;;;;;4932597;29;20048;-86
2021/11/27 03:37:00;;;;;;;13.65;3.53;;;2.60;82.00;;;;;;4934085;29;20051;-87
2021/11/27 03:39:27;;;;;;;12.70;2.63;;;2.60;82.00;;;;;;4930421;29;20193;-87
2021/11/27 03:41:54;;;;;;;12.50;2.88;;;2.50;82.00;;;;;;4932439;29;20069;-86
2021/11/27 03:44:21;;;;;;;13.10;3.60;;;2.50;82.10;;;;;;4931096;29;20457;-86
2021/11/27 03:46:48;;;;;;;11.10;3.53;;;2.50;82.10;;;;;;4932313;29;20094;-87
2021/11/27 03:49:16;;;;;;;8.00;2.55;;;2.50;82.20;;;;;;4933214;29;20464;-86
2021/11/27 03:51:44;;;;;;;14.07;3.33;;;2.50;82.20;;;;;;4933340;29;20052;-86
2021/11/27 03:54:11;;;;;;;13.60;3.42;;;2.50;82.20;;;;;;4931753;29;20122;-86
2021/11/27 03:56:38;;;;;;;12.30;2.70;;;2.50;82.30;;;;;;4931989;29;20055;-87
2021/11/27 03:59:06;;;;;;;14.23;2.95;;;2.50;82.30;;;;;;4931017;29;20051;-87
2021/11/27 04:01:33;;;;;;;9.50;2.70;;;2.50;82.30;;;;;;4932057;29;20095;-87
2021/11/27 04:04:03;;;;;;;15.35;3.33;;;2.50;82.30;;;;;;4934128;29;20445;-88
2021/11/27 04:06:32;;;;;;;12.95;3.10;;;2.50;82.40;;;;;;4929033;29;20051;-87
2021/11/27 04:09:00;;;;;;;9.88;2.63;;;2.50;82.40;;;;;;4930486;29;20126;-86
2021/11/27 04:11:29;;;;;;;12.70;2.90;;;2.50;82.50;;;;;;4930562;29;20540;-86
2021/11/27 04:13:56;;;;;;;12.48;3.25;;;2.50;82.50;;;;;;4931974;29;20051;-87
2021/11/27 04:16:23;;;;;;;9.10;2.45;;;2.50;82.50;;;;;;4932153;29;20052;-88
2021/11/27 04:18:50;;;;;;;8.05;2.60;;;2.40;82.60;;;;;;4928440;29;20055;-89
2021/11/27 04:21:20;;;;;;;10.75;3.13;;;2.50;82.70;;;;;;4930628;29;20056;-89
2021/11/27 04:23:49;;;;;;;10.68;2.97;;;2.50;82.70;;;;;;4929750;29;20062;-89
2021/11/27 04:26:17;;;;;;;9.27;2.70;;;2.50;82.70;;;;;;4927566;29;20058;-89
2021/11/27 04:28:44;;;;;;;12.43;2.78;;;2.50;82.80;;;;;;4933543;29;20055;-89
2021/11/27 04:31:11;;;;;;;11.77;2.53;;;2.50;82.80;;;;;;4932995;29;20051;-88
2021/11/27 04:33:38;;;;;;;11.50;2.92;;;2.50;82.80;;;;;;4933137;29;20052;-89
2021/11/27 04:36:08;;;;;;;10.35;2.17;;;2.50;82.90;;;;;;4929582;29;20114;-87
2021/11/27 04:38:35;;;;;;;7.60;2.17;;;2.50;82.90;;;;;;4930200;29;20054;-87
2021/11/27 04:41:03;;;;;;;9.63;2.15;;;2.50;82.90;;;;;;4927365;29;20047;-88
2021/11/27 04:43:31;;;;;;;10.10;2.15;;;2.50;82.90;;;;;;4916180;29;20044;-88
2021/11/27 04:46:00;;;;;;;10.77;2.20;;;2.50;82.90;;;;;;4933941;29;20056;-87
2021/11/27 04:48:29;;;;;;;12.38;2.42;;;2.50;82.90;;;;;;4930214;29;20541;-89
2021/11/27 04:50:56;;;;;;;9.48;1.90;;;2.50;83.00;;;;;;4931852;29;20051;-89
2021/11/27 04:53:24;;;;;;;8.50;1.95;;;2.50;82.90;;;;;;4931595;29;20062;-89
2021/11/27 04:55:51;;;;;;;11.98;2.30;;;2.50;83.00;;;;;;4931749;29;20456;-91
2021/11/27 04:58:18;;;;;;;14.55;2.70;;;2.40;83.00;;;;;;4931012;29;20548;-89
2021/11/27 05:00:49;;;;;;;7.25;2.20;;;2.40;83.00;;;;;;4930347;29;20491;-87
2021/11/27 05:03:16;;;;;;;11.48;2.25;;;2.40;83.00;;;;;;4930637;29;20107;-90
2021/11/27 05:05:43;;;;;;;9.77;2.20;;;2.40;83.10;;;;;;4930560;29;20085;-90
2021/11/27 05:08:10;;;;;;;8.88;1.85;;;2.40;83.10;;;;;;4934826;29;20657;-87
2021/11/27 05:10:38;;;;;;;9.85;2.10;;;2.40;83.10;;;;;;4933641;29;20051;-89
2021/11/27 05:13:05;;;;;;;11.55;2.50;;;2.40;83.20;;;;;;4936273;29;20055;-89
2021/11/27 05:15:32;;;;;;;13.30;2.50;;;2.40;83.20;;;;;;4935298;29;20052;-89
2021/11/27 05:17:59;;;;;;;14.73;2.72;;;2.40;83.30;;;;;;4927865;29;20055;-88
2021/11/27 05:20:25;;;;;;;8.30;1.95;;;2.40;83.30;;;;;;4932953;29;20547;-89
2021/11/27 05:22:52;;;;;;;11.63;2.13;;;2.40;83.40;;;;;;4935285;29;20052;-88
2021/11/27 05:25:19;;;;;;;7.75;2.35;;;2.40;83.40;;;;;;4934993;29;20051;-89
2021/11/27 05:27:47;;;;;;;7.60;2.08;;;2.40;83.40;;;;;;4934998;29;20508;-89
2021/11/27 05:30:15;;;;;;;10.00;2.10;;;2.40;83.40;;;;;;4933638;29;20047;-88
2021/11/27 05:35:25;;;;;;;7.25;2.22;;;2.40;83.50;;;;;;4935037;29;20649;-88
2021/11/27 05:37:52;;;;;;;10.48;2.95;;;2.40;83.50;;;;;;4935165;29;20122;-88
2021/11/27 05:40:19;;;;;;;7.78;1.90;;;2.40;83.50;;;;;;4934520;29;20062;-88
2021/11/27 05:42:46;;;;;;;7.90;2.00;;;2.40;83.60;;;;;;4934666;29;20055;-89
2021/11/27 05:45:14;;;;;;;11.57;2.55;;;2.40;83.60;;;;;;4933202;29;20052;-88
2021/11/27 05:47:41;;;;;;;11.25;2.42;;;2.40;83.60;;;;;;4934379;29;20051;-89
2021/11/27 05:50:09;;;;;;;9.82;2.05;;;2.40;83.60;;;;;;4933000;29;20058;-88
2021/11/27 05:52:36;;;;;;;8.25;2.45;;;2.40;83.60;;;;;;4920580;29;20044;-88
2021/11/27 05:55:04;;;;;;;11.50;2.05;;;2.40;83.70;;;;;;4932928;29;20063;-89
2021/11/27 05:57:31;;;;;;;9.68;2.53;;;2.40;83.70;;;;;;4933330;29;20060;-89
2021/11/27 05:59:59;;;;;;;10.55;2.53;;;2.40;83.70;;;;;;4933202;29;20060;-90
2021/11/27 06:02:26;;;;;;;7.05;2.25;;;2.40;83.70;;;;;;4935101;29;20409;-88
2021/11/27 06:04:53;;;;;;;8.27;2.00;;;2.40;83.60;;;;;;4935876;29;20060;-89
2021/11/27 06:07:20;;;;;;;7.20;2.58;;;2.40;83.60;;;;;;4934803;29;20082;-89
2021/11/27 06:09:47;;;;;;;7.72;1.88;;;2.30;83.60;;;;;;4934763;29;20058;-89
2021/11/27 06:12:14;;;;;;;13.52;2.95;;;2.40;83.60;;;;;;4928899;29;20051;-89
2021/11/27 06:14:41;;;;;;;8.57;2.47;;;2.30;83.60;;;;;;4933434;29;20047;-89
2021/11/27 06:17:08;;;;;;;6.28;2.20;;;2.30;83.50;;;;;;4932240;29;20044;-89
2021/11/27 06:19:35;;;;;;;10.10;2.47;;;2.30;83.50;;;;;;4934075;29;20048;-89
2021/11/27 06:22:02;;;;;;;7.35;1.85;;;2.30;83.50;;;;;;4935411;29;20059;-89
2021/11/27 06:24:29;;;;;;;6.50;2.53;;;2.30;83.50;;;;;;4933880;29;20533;-89
2021/11/27 06:26:56;;;;;;;8.32;2.50;;;2.20;83.50;;;;;;4922613;29;20052;-89
2021/11/27 06:29:23;;;;;;;5.55;1.98;;;2.20;83.50;;;;;;4926089;29;20051;-89
2021/11/27 06:31:50;;;;;;;6.57;2.40;;;2.20;83.60;;;;;;4931800;29;20097;-89
2021/11/27 06:34:17;;;;;;;7.20;2.10;;;2.20;83.60;;;;;;4935464;29;20064;-90
2021/11/27 06:36:44;;;;;;;6.57;1.90;;;2.20;83.60;;;;;;4936417;29;20058;-92
2021/11/27 06:39:11;;;;;;;7.22;2.17;;;2.20;83.60;;;;;;4934350;29;20055;-90
2021/11/27 06:41:38;;;;;;;6.20;2.22;;;2.20;83.60;;;;;;4932771;29;20040;-89
2021/11/27 06:44:05;;;;;;;9.57;2.22;;;2.20;83.60;;;;;;4935332;29;20074;-89
2021/11/27 06:46:32;;;;;;;5.82;2.42;;;2.20;83.70;;;;;;4933775;29;20048;-89
2021/11/27 06:48:59;;;;;;;8.18;2.30;;;2.10;83.60;;;;;;4935710;29;20086;-89
2021/11/27 06:51:27;;;;;;;6.32;2.00;;;2.10;83.70;;;;;;4927300;29;20197;-89
2021/11/27 06:53:54;;;;;;;7.38;2.35;;;2.10;83.70;;;;;;4931305;29;20051;-89
2021/11/27 06:56:21;;;;;;;9.95;2.15;;;2.10;83.70;;;;;;4928790;29;20060;-89
2021/11/27 06:58:48;;;;;;;7.43;2.17;;;2.10;83.70;;;;;;4933960;29;20056;-89
2021/11/27 07:01:15;;;;;;;7.63;2.22;;;2.00;83.70;;;;;;4933320;29;20052;-88
2021/11/27 07:03:42;;;;;;;6.35;2.10;;;2.10;83.80;;;;;;4933936;29;20090;-89
2021/11/27 07:06:09;;;;;;;8.15;2.33;;;2.10;83.80;;;;;;4942653;29;20099;-89
2021/11/27 07:08:36;;;;;;;7.50;2.10;;;2.10;83.80;;;;;;4933014;29;20058;-89
2021/11/27 07:11:03;;;;;;;5.72;2.17;;;2.10;83.80;;;;;;4934284;29;20508;-89
2021/11/27 07:13:31;;;;;;;5.00;1.85;;;2.00;83.80;;;;;;4932384;29;20127;-89
2021/11/27 07:15:58;;;;;;;5.72;2.08;;;2.10;83.90;;;;;;4934545;29;20063;-89
2021/11/27 07:18:25;;;;;;;7.45;2.00;;;2.10;83.90;;;;;;4929009;29;20066;-89
2021/11/27 07:20:54;;;;;;;4.97;1.70;;;2.10;83.90;;;;;;4933928;29;20075;-89
2021/11/27 07:23:21;;;;;;;5.85;1.92;;;2.00;83.90;;;;;;4932804;29;20044;-88
2021/11/27 07:25:48;;;;;;;6.50;1.67;;;2.10;83.90;;;;;;4933701;29;20436;-89
2021/11/27 07:28:15;;;;;;;6.13;1.55;;;2.10;84.00;;;;;;4932886;29;20043;-89
2021/11/27 07:30:42;;;;;;;6.15;1.70;;;2.00;84.00;;;;;;4934147;29;20056;-88
2021/11/27 07:33:09;;;;;;;7.50;1.85;;;2.00;84.00;;;;;;4931699;29;20060;-90
2021/11/27 07:35:37;;;;;;;5.53;1.80;;;2.10;84.00;;;;;;4934188;29;20071;-90
2021/11/27 07:38:04;;;;;;;4.72;1.73;;;2.00;84.10;;;;;;4935338;29;20055;-91
2021/11/27 07:40:32;;;;;;;7.22;2.75;;;2.00;84.00;;;;;;4934080;29;20060;-91
2021/11/27 07:43:00;;;;;;;10.63;2.50;;;2.10;84.10;;;;;;4934941;29;20051;-90
2021/11/27 07:45:27;;;;;;;6.05;2.15;;;2.10;84.10;;;;;;4932134;29;20067;-90
2021/11/27 07:47:55;;;;;;;5.18;2.45;;;2.10;84.10;;;;;;4936608;29;20051;-90
2021/11/27 07:50:21;;;;;;;7.65;2.28;;;2.10;84.20;;;;;;4929975;29;20056;-92
2021/11/27 07:52:48;;;;;;;7.03;2.13;;;2.10;84.20;;;;;;4930421;29;20051;-90
2021/11/27 07:55:16;;;;;;;5.43;2.15;;;2.10;84.20;;;;;;4917329;29;20058;-89
2021/11/27 07:57:43;;;;;;;6.97;2.30;;;2.10;84.20;;;;;;4916196;29;20056;-91
2021/11/27 08:00:10;;;;;;;5.28;2.10;;;2.10;84.20;;;;;;4932501;29;20103;-90
2021/11/27 08:02:37;;;;;;;5.28;2.25;;;2.10;84.30;;;;;;4935828;29;20416;-90
2021/11/27 08:05:05;;;;;;;6.97;2.35;;;2.10;84.30;;;;;;4935746;29;20051;-90
2021/11/27 08:07:35;;;;;;;5.68;2.28;;;2.10;84.30;;;;;;4932678;29;20052;-91
2021/11/27 08:10:08;;;;;;;6.65;2.10;;;2.10;84.30;;;;;;4935908;29;20066;-90
2021/11/27 08:12:35;;;;;;;6.05;2.20;;;2.10;84.30;;;;;;4934574;29;20063;-90
2021/11/27 08:15:03;;;;;;;8.10;2.30;;;2.10;84.30;;;;;;4930224;29;20054;-89
2021/11/27 08:17:30;;;;;;;4.68;1.95;;;2.10;84.30;;;;;;4933895;29;20059;-90
2021/11/27 08:19:57;;;;;;;7.85;2.20;;;2.20;84.30;;;;;;4929084;29;20626;-90
2021/11/27 08:22:24;;;;;;;4.95;2.05;;;2.10;84.40;;;;;;4932770;29;20052;-90
2021/11/27 08:24:51;;;;;;;4.88;1.80;;;2.10;84.40;;;;;;4933560;29;20520;-88
2021/11/27 08:27:20;;;;;;;5.05;1.90;;;2.10;84.40;;;;;;4932422;29;20060;-90
2021/11/27 08:29:47;;;;;;;4.63;1.92;;;2.10;84.40;;;;;;4934307;29;20060;-90
2021/11/27 08:32:14;;;;;;;4.10;1.80;;;2.20;84.40;;;;;;4935253;29;20420;-91
2021/11/27 08:34:41;;;;;;;5.75;1.80;;;2.20;84.40;;;;;;4933908;29;20525;-89
2021/11/27 08:37:08;;;;;;;5.97;1.83;;;2.10;84.50;;;;;;4934615;29;20052;-89
2021/11/27 08:39:36;;;;;;;5.63;1.63;;;2.20;84.50;;;;;;4917569;29;20055;-88
2021/11/27 08:42:03;;;;;;;4.15;1.55;;;2.20;84.50;;;;;;4929785;29;20106;-89
2021/11/27 08:44:30;;;;;;;4.97;1.50;;;2.20;84.50;;;;;;4936814;29;20048;-89
2021/11/27 08:46:57;;;;;;;4.90;1.50;;;2.20;84.50;;;;;;4933643;29;20501;-88
2021/11/27 08:49:24;;;;;;;5.63;1.83;;;2.20;84.50;;;;;;4936541;29;20079;-89
2021/11/27 08:51:51;;;;;;;3.60;1.67;;;2.20;84.50;;;;;;4936368;29;20412;-88
2021/11/27 08:54:18;;;;;;;5.70;2.03;;;2.20;84.50;;;;;;4934526;29;20456;-88
2021/11/27 08:56:45;;;;;;;6.30;1.92;;;2.20;84.50;;;;;;4934780;29;20067;-88
2021/11/27 08:59:12;;;;;;;3.78;1.55;;;2.20;84.50;;;;;;4935670;29;20047;-89
2021/11/27 09:01:43;;;;;;;3.80;1.58;;;2.20;84.50;;;;;;4934397;29;20052;-88
2021/11/27 09:04:10;;;;;;;5.13;1.80;;;2.30;84.50;;;;;;4936720;29;20047;-88
2021/11/27 09:06:37;;;;;;;3.95;1.58;;;2.20;84.50;;;;;;4935336;29;20532;-88
2021/11/27 09:09:05;;;;;;;5.35;1.60;;;2.30;84.60;;;;;;4933630;29;20556;-89
2021/11/27 09:11:33;;;;;;;4.63;2.15;;;2.30;84.60;;;;;;4933598;29;20500;-88
2021/11/27 09:14:01;;;;;;;6.28;1.80;;;2.30;84.60;;;;;;4935089;29;20052;-88
2021/11/27 09:16:28;;;;;;;4.13;1.70;;;2.30;84.60;;;;;;4935097;29;20066;-88
2021/11/27 09:19:02;;;;;;;5.07;2.00;;;2.30;84.60;;;;;;4937281;29;20071;-88
2021/11/27 09:21:30;;;;;;;5.75;2.00;;;2.30;84.60;;;;;;4933770;29;20124;-88
2021/11/27 09:23:57;;;;;;;7.03;2.35;;;2.40;84.60;;;;;;4932916;29;20047;-88
2021/11/27 09:26:25;;;;;;;6.28;2.00;;;2.40;84.60;;;;;;4935571;29;20074;-88
2021/11/27 09:28:52;;;;;;;4.45;2.00;;;2.40;84.60;;;;;;4933049;29;20075;-87
2021/11/27 09:31:18;;;;;;;6.90;1.90;;;2.40;84.60;;;;;;4935483;29;20055;-87
2021/11/27 09:33:45;;;;;;;5.95;1.92;;;2.40;84.60;;;;;;4936344;29;20047;-87
2021/11/27 09:36:19;;;;;;;5.72;2.13;;;2.40;84.60;;;;;;4933506;29;20062;-87
2021/11/27 09:38:48;;;;;;;4.15;1.83;;;2.40;84.60;;;;;;4934095;29;20509;-87
2021/11/27 09:41:24;;;;;;;4.93;2.00;;;2.50;84.60;;;;;;4928986;29;20056;-87
2021/11/27 09:43:53;;;;;;;6.07;1.80;;;2.50;84.60;;;;;;4933554;29;20465;-88
2021/11/27 09:46:22;;;;;;;5.25;2.45;;;2.40;84.60;;;;;;4935553;29;20051;-89
2021/11/27 09:48:52;;;;;;;5.57;2.45;;;2.50;84.60;;;;;;4934471;29;20051;-87
2021/11/27 09:51:21;;;;;;;5.28;2.20;;;2.50;84.60;;;;;;4932448;29;20414;-88
2021/11/27 09:53:50;;;;;;;5.07;2.17;;;2.50;84.60;;;;;;4932377;29;20052;-87
2021/11/27 09:56:19;;;;;;;5.07;2.20;;;2.50;84.70;;;;;;4931780;29;20625;-87
2021/11/27 09:58:46;;;;;;;4.68;2.20;;;2.50;84.60;;;;;;4932972;29;20055;-87
2021/11/27 10:01:15;;;;;;;5.07;2.30;;;2.50;84.60;;;;;;4935351;29;20474;-87
2021/11/27 10:04:00;;;;;;;6.03;2.47;;;2.60;84.70;;;;;;4935308;29;20099;-87
2021/11/27 10:06:33;;;;;;;6.07;2.38;;;2.60;84.70;;;;;;4928621;29;20062;-87
2021/11/27 10:09:03;;;;;;;4.72;2.63;;;2.60;84.70;;;;;;4934002;29;20141;-88
2021/11/27 10:11:30;;;;;;;5.75;2.63;;;2.60;84.70;;;;;;4934017;29;20189;-89
2021/11/27 10:13:57;;;;;;;6.32;2.80;;;2.60;84.70;;;;;;4934137;29;20055;-88
2021/11/27 10:16:24;;;;;;;7.47;3.35;;;2.60;84.70;;;;;;4934004;29;20058;-89
2021/11/27 10:19:05;;;;;;;6.53;3.17;;;2.60;84.70;;;;;;4935825;29;20055;-87
2021/11/27 10:21:32;;;;;;;5.82;3.10;;;2.60;84.70;;;;;;4933933;29;20059;-88
2021/11/27 10:24:14;;;;;;;8.70;3.85;;;2.70;84.70;;;;;;4932223;29;20048;-87
2021/11/27 10:26:41;;;;;;;6.78;4.20;;;2.70;84.70;;;;;;4932178;29;20048;-88
2021/11/27 10:29:18;;;;;;;8.43;3.75;;;2.70;84.70;;;;;;4933789;29;20102;-87
2021/11/27 10:31:48;;;;;;;12.63;4.75;;;2.70;84.80;;;;;;4919993;29;20056;-87
2021/11/27 10:34:23;;;;;;;7.18;3.75;;;2.70;84.80;;;;;;4933473;29;20047;-88
2021/11/27 10:37:21;;;;;;;8.82;4.53;;;2.70;84.80;;;;;;4935194;29;20059;-88
2021/11/27 10:40:14;;;;;;;11.30;5.18;;;2.80;84.80;;;;;;4933548;29;20067;-88
2021/11/27 10:42:50;;;;;;;6.63;4.45;;;2.80;84.80;;;;;;4934525;29;20421;-88
2021/11/27 10:45:26;;;;;;;10.07;5.38;;;2.80;84.80;;;;;;4932788;29;20192;-88
2021/11/27 10:48:11;;;;;;;8.10;4.90;;;2.80;84.90;;;;;;4933494;29;20129;-88
2021/11/27 10:50:49;;;;;;;9.73;5.70;;;2.80;84.90;;;;;;4933474;29;20070;-89
2021/11/27 10:53:22;;;;;;;7.72;4.90;;;2.90;84.90;;;;;;4931555;29;20054;-89
2021/11/27 10:55:50;;;;;;;11.43;6.43;;;2.90;84.90;;;;;;4931353;29;20056;-88
2021/11/27 10:58:17;;;;;;;11.77;5.85;;;2.90;84.90;;;;;;4934182;29;20082;-89
2021/11/27 11:00:49;;;;;;;15.18;8.27;;;2.90;84.90;;;;;;4934885;29;20051;-88
2021/11/27 11:03:37;;;;;;;14.50;7.78;;;2.90;84.90;;;;;;4930768;29;20055;-89
2021/11/27 11:06:24;;;;;;;12.48;7.50;;;2.90;85.00;;;;;;4931403;29;20054;-89
2021/11/27 11:08:53;;;;;;;10.82;7.25;;;2.90;84.90;;;;;;4934081;29;20095;-88
2021/11/27 11:11:20;;;;;;;11.77;6.95;;;2.90;85.00;;;;;;4933689;29;20043;-89
2021/11/27 11:13:53;;;;;;;14.25;7.57;;;2.90;84.90;;;;;;4932189;29;20613;-88
2021/11/27 11:16:26;;;;;;;13.07;7.03;;;3.00;85.00;;;;;;4934238;29;20052;-88
2021/11/27 11:19:16;;;;;;;10.63;6.65;;;3.00;85.00;;;;;;4933891;29;20051;-89
2021/11/27 11:22:13;;;;;;;11.30;6.60;;;3.00;85.00;;;;;;4934155;29;20055;-89
2021/11/27 11:24:43;;;;;;;11.85;6.93;;;3.00;85.00;;;;;;4933980;29;20052;-88
2021/11/27 11:27:11;;;;;;;10.77;6.30;;;3.10;85.00;;;;;;4930925;29;20099;-89
2021/11/27 11:29:47;;;;;;;11.80;7.07;;;3.10;85.00;;;;;;4927334;29;20043;-87
2021/11/27 11:32:23;;;;;;;12.65;6.32;;;3.10;85.00;;;;;;4930911;29;20058;-89
2021/11/27 11:34:54;;;;;;;13.60;6.95;;;3.10;85.00;;;;;;4932573;29;20052;-87
2021/11/27 11:37:23;;;;;;;10.77;6.82;;;3.20;85.00;;;;;;4933091;29;20048;-89
2021/11/27 11:39:51;;;;;;;11.43;6.07;;;3.20;85.00;;;;;;4931983;29;20055;-88
2021/11/27 11:42:19;;;;;;;11.07;6.30;;;3.20;85.00;;;;;;4932428;29;20052;-90
2021/11/27 11:44:47;;;;;;;10.85;6.45;;;3.20;85.00;;;;;;4932873;29;20067;-89
2021/11/27 11:47:14;;;;;;;9.65;6.53;;;3.20;85.00;;;;;;4931478;29;20044;-88
2021/11/27 11:49:43;;;;;;;9.98;6.45;;;3.20;85.00;;;;;;4932145;29;20429;-87
2021/11/27 11:52:23;;;;;;;10.88;6.88;;;3.30;85.00;;;;;;4934168;29;20094;-87
2021/11/27 11:54:57;;;;;;;11.80;6.18;;;3.20;85.00;;;;;;4932616;29;20671;-88
2021/11/27 11:57:52;;;;;;;10.25;6.90;;;3.30;85.00;;;;;;4930887;29;20535;-88
2021/11/27 12:00:18;;;;;;;;;;;3.30;85.00;;;;;;4932696;29;20102;-88
2021/11/27 12:02:46;;;;;;;11.23;7.88;;;3.30;84.90;;;;;;4932095;29;19927;-88
2021/11/27 12:05:15;;;;;;;10.43;7.07;;;3.30;84.90;;;;;;4929299;29;20040;-87
2021/11/27 12:07:46;;;;;;;10.55;7.05;;;3.30;84.90;;;;;;4929342;29;20056;-89
2021/11/27 12:10:40;;;;;;;10.60;6.82;;;3.30;84.90;;;;;;4932423;29;20494;-89
2021/11/27 12:13:07;;;;;;;11.73;7.05;;;3.30;84.90;;;;;;4934248;29;20671;-88
2021/11/27 12:15:47;;;;;;;10.40;6.65;;;3.30;84.90;;;;;;4932279;29;20147;-87
2021/11/27 12:18:19;;;;;;;12.02;7.63;;;3.30;84.90;;;;;;4930797;29;20048;-88
2021/11/27 12:20:58;;;;;;;11.77;7.50;;;3.40;84.90;;;;;;4930528;29;20056;-89
2021/11/27 12:23:25;;;;;;;11.20;7.07;;;3.30;85.00;;;;;;4927084;29;20520;-88
2021/11/27 12:26:10;;;;;;;9.75;6.70;;;3.30;85.00;;;;;;4932770;29;20107;-88
2021/11/27 12:28:49;;;;;;;10.60;7.63;;;3.40;85.00;;;;;;4931029;29;20107;-88
2021/11/27 12:31:23;;;;;;;10.63;7.40;;;3.40;85.00;;;;;;4930693;29;20119;-87
2021/11/27 12:34:00;;;;;;;13.25;8.60;;;3.40;85.00;;;;;;4931938;29;20073;-89
2021/11/27 12:36:32;;;;;;;11.68;7.78;;;3.40;85.00;;;;;;4931391;29;20059;-89
2021/11/27 12:39:29;;;;;;;12.98;8.85;;;3.40;85.00;;;;;;4930720;29;20047;-89
2021/11/27 12:42:06;;;;;;;10.95;8.38;;;3.40;85.00;;;;;;4931429;29;20062;-88
2021/11/27 12:44:53;;;;;;;11.30;8.45;;;3.40;85.00;;;;;;4930546;29;20047;-89
2021/11/27 12:47:26;;;;;;;11.35;8.30;;;3.50;85.10;;;;;;4931536;29;20516;-89
2021/11/27 12:49:58;;;;;;;11.48;8.95;;;3.50;85.10;;;;;;4932852;29;20051;-88
2021/11/27 12:52:31;;;;;;;14.30;10.45;;;3.40;85.10;;;;;;4930669;29;20104;-89
2021/11/27 12:55:17;;;;;;;14.27;10.10;;;3.50;85.10;;;;;;4934023;29;20103;-89
2021/11/27 12:57:46;;;;;;;14.13;9.93;;;3.50;85.10;;;;;;4933186;29;20056;-87
2021/11/27 13:00:19;;;;;;;13.38;9.68;;;3.50;85.10;;;;;;4931664;29;20071;-87
2021/11/27 13:02:54;;;;;;;13.88;11.07;;;3.50;85.10;;;;;;4931274;29;20075;-88
2021/11/27 13:05:23;;;;;;;14.68;10.23;;;3.50;85.10;;;;;;4931655;29;20044;-88
2021/11/27 13:07:50;;;;;;;12.45;10.05;;;3.50;85.10;;;;;;4929302;29;20059;-88